Cactus Peak, Santa Catalina Island Weather observations

Data are for 10 minute period ending at time listed.
 Day   Time   Solar   Ave.   Ave.  Ave.  Vector    Max.   Stn.    Total
  of    of     Rad.   Air    Rel.  Wind   Wind     Wind   Baro.  Precip.
Year   Day            Temp.  Hum.  Speed  Dir.     Gust   Pres.         
2014   (PST)   W/m2    F      %     mph   deg.      mph    mb.     in.  
------------------------------------------------------------------------
 108    4:20    0.0    57   89.0     7    159.5    10.8    999.0   0.00  
 108    4:30    0.0    57   89.2     6    160.1     9.6    999.0   0.00  
 108    4:40    0.0    56   89.2     5    159.7     9.6    999.0   0.00  
 108    4:50    0.0    57   89.1     4    167.8     8.4    999.0   0.00  
 108    5:00    0.0    56   89.1     7    164.2    10.8    999.0   0.00  
 108    5:10    0.0    57   89.2     6    161.9    10.2    999.0   0.00  
 108    5:20    0.0    56   89.1     7    162.5    10.2    999.0   0.00  
 108    5:30    0.0    56   88.9     7    164.5    10.8    999.0   0.00  
 108    5:40    1.0    56   88.5     6    159.1     9.6    999.0   0.00  
 108    5:50    3.0    56   88.3     6    158.2     8.4    999.0   0.00  
 108    6:00    3.0    57   88.2     5    164.4     8.4    999.0   0.00  
 108    6:10    4.0    57   88.1     5    167.4     7.8    999.0   0.00  
 108    6:20    5.0    57   88.3     4    162.7     7.2    999.0   0.00  
 108    6:30    9.0    57   88.5     5    159.9     7.2    999.0   0.00  
 108    6:40   16.0    56   88.4     6    161.2     8.4    999.0   0.00  
 108    6:50   24.0    57   88.4     6    164.0     9.0    999.0   0.00  
 108    7:00   14.0    57   88.4     5    169.3     8.4    999.0   0.00  
 108    7:10   15.0    57   88.3     5    166.0     8.4    999.0   0.00  
 108    7:20   28.0    57   88.2     5    164.3     7.8    999.0   0.00  
 108    7:30   41.0    57   87.8     7    173.7     9.6    999.0   0.00  
 108    7:40   54.0    57   86.8     5    169.9     7.8    999.0   0.00  
 108    7:50   71.0    57   85.5     4    163.6     6.6    999.0   0.00  
 108    8:00   79.0    57   84.2     4    160.4     7.8    999.0   0.00  
 108    8:10   94.0    58   84.4     4    162.5     7.2    999.0   0.00  
 108    8:20   94.0    57   85.4     4    143.4     7.2    999.0   0.00  
 108    8:30  132.0    58   85.3     4    145.9     6.0    999.0   0.00  
 108    8:40  162.0    58   84.5     4    128.3     6.6    999.0   0.00  
 108    8:50  246.0    59   82.9     4    101.0     6.0    999.0   0.00  
 108    9:00  206.0    60   80.7     3    108.1     7.2    999.0   0.00  
 108    9:10  225.0    59   80.6     6    135.6     8.4    999.0   0.00  
 108    9:20  238.0    60   80.0     5    128.6    10.2    999.0   0.00  
 108    9:30  237.0    59   79.4     6    136.3     9.6    999.0   0.00  
 108    9:40  240.0    60   78.0     4    148.3     6.6    999.0   0.00  
 108    9:50  252.0    61   77.1     3     94.6     6.0    999.0   0.00  
 108   10:00  304.0    61   76.3     4    114.4     7.2    999.0   0.00  
 108   10:10  231.0    61   76.2     6    136.4    11.9    999.0   0.00  
 108   10:20  208.0    60   77.6     6    157.5    11.3    999.0   0.00  
 108   10:30  231.0    60   77.2     6    149.5    11.9    999.0   0.00  
 108   10:40  262.0    60   76.3     6    158.9    10.8    999.0   0.00  
 108   10:50  400.0    60   76.4     8    165.7    13.1    999.0   0.00  
 108   11:00  317.0    60   77.2     6    159.6    10.8    999.0   0.00  
 108   11:10  344.0    60   77.8     7    158.1    11.9    999.0   0.00  
 108   11:20  345.0    60   77.9     7    161.1    13.1    999.0   0.00  
 108   11:30  343.0    60   79.5     8    164.0    12.5    999.0   0.00  
 108   11:40  332.0    60   80.4     8    166.6    12.5    999.0   0.00  
 108   11:50  267.0    59   81.4     7    163.0    10.8    999.0   0.00  
 108   12:00  399.0    60   80.8     7    158.6    12.5    999.0   0.00  
 108   12:10  474.0    60   78.6     8    166.0    13.1    999.0   0.00  
 108   12:20  509.0    62   77.1     8    163.6    13.1    999.0   0.00  
 108   12:30  510.0    62   74.5     8    154.0    13.1    999.0   0.00  
 108   12:40  533.0    62   73.3     9    163.8    14.3    999.0   0.00  
 108   12:50  533.0    61   74.3     8    159.2    12.5    999.0   0.00  
 108   13:00  411.0    61   75.0     8    164.7    12.5    999.0   0.00  
 108   13:10  383.0    60   76.9     8    166.9    13.7    999.0   0.00  
 108   13:20  319.0    61   76.6     6    165.6    11.9    999.0   0.00  
 108   13:30  360.0    61   77.6     8    170.7    11.9    999.0   0.00  
 108   13:40  365.0    60   77.8     8    172.2    11.9    999.0   0.00  
 108   13:50  476.0    60   77.4    10    171.7    14.9    999.0   0.00  
 108   14:00  728.0    62   75.4    10    174.9    15.5    999.0   0.00  
 108   14:10  759.0    63   72.8    10    174.3    16.7    999.0   0.00  
 108   14:20  731.0    63   69.7    11    173.8    18.5    999.0   0.00  
 108   14:30  829.0    63   70.0    10    169.5    16.1    999.0   0.00  
 108   14:40  743.0    64   69.2     9    166.5    13.7    999.0   0.00  
 108   14:50  674.0    64   67.5    10    167.6    14.3    999.0   0.00  
 108   15:00  554.0    64   67.9    10    167.1    15.5    999.0   0.00  
 108   15:10  517.0    63   70.8     8    166.6    14.9    999.0   0.00  
 108   15:20  492.0    62   72.9     9    179.4    14.9    999.0   0.00  
 108   15:30  236.0    61   73.2     7    190.3    10.2    999.0   0.00  
 108   15:40  192.0    61   75.1     7    204.7    11.9    999.0   0.00  
 108   15:50  157.0    60   76.5     7    199.8    11.3    999.0   0.00  
 108   16:00  129.0    60   78.0     6    252.1     9.6    999.0   0.00  
 108   16:10  173.0    60   78.9     5    262.1     8.4    999.0   0.00  
 108   16:20  183.0    61   77.6     6    311.2    10.2    999.0   0.00  
 108   16:30  149.0    61   77.2     7    332.5    11.3    999.0   0.00  
 108   16:40  108.0    61   77.1     6    321.3     9.0    999.0   0.00  
 108   16:50  157.0    61   76.1     5    315.7     7.8    999.0   0.00  
 108   17:00  169.0    62   75.7     6    314.5     7.8    999.0   0.00  
 108   17:10  162.0    62   73.9     5    318.8     7.2    999.0   0.00  
 108   17:20  200.0    62   72.8     6    326.2     8.4    999.0   0.00  
 108   17:30  175.0    62   73.3     7    322.3     9.0    999.0   0.00  
 108   17:40  141.0    62   74.1     7    323.1     9.0    999.0   0.00  
 108   17:50  107.0    61   76.4     8    329.3    10.8    999.0   0.00  
 108   18:00   73.0    59   79.6     8    330.9    10.8    999.0   0.00  
 108   18:10   32.0    58   81.8     8    334.1    10.2    999.0   0.00  
 108   18:20   19.0    58   83.9     8    335.4    10.2    999.0   0.00  
 108   18:30    9.0    57   84.9     8    342.4     9.6    999.0   0.00  
 108   18:40    2.0    57   85.6     6    342.5     8.4    999.0   0.00  
 108   18:50    0.0    56   86.3     6    347.5     8.4    999.0   0.00  
 108   19:00    0.0    56   86.9     6    350.3     7.2    999.0   0.00  
 108   19:10    0.0    56   87.4     5    329.1     6.0    999.0   0.00  
 108   19:20    0.0    56   87.5     4    321.7     4.2    999.0   0.00  
 108   19:30    0.0    57   87.2     2    130.2     4.2    999.0   0.00  
 108   19:40    0.0    57   85.8     2     52.2     3.6    999.0   0.00  
 108   19:50    0.0    57   85.9     3    333.8     3.6    999.0   0.00  
 108   20:00    0.0    57   86.3     3    317.5     3.6    999.0   0.00  
 108   20:10    0.0    57   86.6     3    283.1     4.8    999.0   0.00  
 108   20:20    0.0    56   87.1     3    290.2     4.8    999.0   0.00  
 108   20:30    0.0    56   87.5     2    301.2     3.6    999.0   0.00  
 108   20:40    0.0    56   88.0     1    299.7     3.0    999.0   0.00  
 108   20:50    0.0    56   87.9     2    185.4     3.0    999.0   0.00  
 108   21:00    0.0    56   87.5     2    339.3     3.6    999.0   0.00  
 108   21:10    0.0    56   87.6     2    271.2     3.6    999.0   0.00  
 108   21:20    0.0    56   87.3     3    118.1     4.2    999.0   0.00  
 108   21:30    0.0    56   86.8     3    117.1     4.2    999.0   0.00  
 108   21:40    0.0    57   86.5     2    111.0     3.6    999.0   0.00  
 108   21:50    0.0    57   86.4     2     80.1     3.0    999.0   0.00  
 108   22:00    0.0    57   86.5     2     84.9     3.6    999.0   0.00  
 108   22:10    0.0    57   86.7     3    135.8     4.8    999.0   0.00  
 108   22:20    0.0    57   86.9     4    120.5     4.2    999.0   0.00  
 108   22:30    0.0    57   87.2     5    130.6     6.0    999.0   0.00  
 108   22:40    0.0    57   87.3     5    141.6     6.6    999.0   0.00  
 108   22:50    0.0    57   87.4     5    133.8     6.6    999.0   0.00  
 108   23:00    0.0    57   87.5     4    127.5     5.4    999.0   0.00  
 108   23:10    0.0    57   87.5     3    134.7     4.2    999.0   0.00  
 108   23:20    0.0    57   87.4     2    151.7     3.6    999.0   0.00  
 108   23:30    0.0    57   87.3     3    160.9     4.8    999.0   0.00  
 108   23:40    0.0    57   87.4     3    158.4     4.8    999.0   0.00  
 108   23:50    0.0    57   87.3     2    143.9     3.6    999.0   0.00  
 109    0:00    0.0    57   86.7     2    113.4     3.6    999.0   0.00  
 109    0:10    0.0    57   85.4     2    137.5     3.6    999.0   0.00  
 109    0:20    0.0    57   83.8     3    126.1     4.8    999.0   0.00  
 109    0:30    0.0    57   83.2     3    150.5     5.4    999.0   0.00  
 109    0:40    0.0    57   83.5     4    152.3     6.0    999.0   0.00  
 109    0:50    0.0    57   84.7     5    129.1     6.6    999.0   0.00  
 109    1:00    0.0    57   85.7     4    117.7     5.4    999.0   0.00  
 109    1:10    0.0    56   86.3     4    119.0     5.4    999.0   0.00  
 109    1:20    0.0    56   86.9     5    118.3     6.6    999.0   0.00  
 109    1:30    0.0    56   87.4     6    119.6     7.2    999.0   0.00  
 109    1:40    0.0    56   88.0     5    117.0     6.0    999.0   0.00  
 109    1:50    0.0    56   88.4     5    123.0     6.6    999.0   0.00  
 109    2:00    0.0    56   88.7     5    123.5     6.6    999.0   0.00  
 109    2:10    0.0    56   88.9     4    121.0     5.4    999.0   0.00  
 109    2:20    0.0    56   88.9     4    124.8     5.4    999.0   0.00  
 109    2:30    0.0    56   88.8     3    106.7     4.8    999.0   0.00  
 109    2:40    0.0    56   88.6     4    114.4     6.0    999.0   0.00  
 109    2:50    0.0    56   88.7     4    112.2     5.4    999.0   0.00  
 109    3:00    0.0    56   88.7     4    121.0     6.0    999.0   0.00  
 109    3:10    0.0    56   88.9     4    134.6     5.4    999.0   0.00  
 109    3:20    0.0    56   89.0     3    151.4     4.8    999.0   0.00  
 109    3:30    0.0    56   89.1     2    165.1     4.8    999.0   0.00  
 109    3:40    0.0    56   89.3     3    207.0     5.4    999.0   0.00  
 109    3:50    0.0    56   89.2     3    220.1     4.8    999.0   0.00  
 109    4:00    0.0    56   89.1     3    234.4     4.2    999.0   0.00  
 109    4:10    0.0    56   89.0     5    206.8     6.6    999.0   0.00  

Return to Cactus Peak graphs page.


Western Regional Climate Center,wrcc@dri.edu